Observations for VENEZIA TESSERA, Italy (LIPZ)

LIPZ 201950Z 29004KT 250V330 3000 BR NSC 06/04 Q1026 NOSIG  
LIPZ 201920Z 26003KT 240V310 3000 BR NSC 07/05 Q1025 NOSIG  
LIPZ 201850Z 25003KT 220V280 3000 BR NSC 07/05 Q1025 NOSIG  
LIPZ 201820Z 23003KT 200V260 2500 BR NSC 07/05 Q1025 NOSIG  
LIPZ 201750Z 22003KT 2500 BR NSC 08/05 Q1025 NOSIG  
LIPZ 201720Z 22003KT 2500 BR NSC 07/05 Q1025 NOSIG  
LIPZ 201650Z 16002KT 2200 BR NSC 07/05 Q1025 NOSIG  
LIPZ 201620Z 16002KT 2500 BR FEW013 08/05 Q1024 NOSIG   
LIPZ 201550Z 14003KT 2500 BR SCT013 09/04 Q1024 NOSIG   
LIPZ 201520Z 16003KT 3000 BR FEW010 BKN020 09/04 Q1024 NOSIG
LIPZ 201450Z 16003KT 130V190 2500 BR SCT007 BKN020 09/05 Q1025 NOSIG
LIPZ 201420Z 17003KT 2500 BR SCT007 BKN020 09/05 Q1025 NOSIG
LIPZ 201350Z 16003KT 120V190 2500 BR OVC020 09/05 Q1025 NOSIG   
LIPZ 201320Z 16003KT 120V180 2500 BR OVC020 09/05 Q1025 NOSIG   
LIPZ 201250Z 16003KT 130V190 2500 BR BKN020 09/05 Q1025 NOSIG   
LIPZ 201220Z 14003KT 060V190 2500 BR OVC020 09/05 Q1025 NOSIG   
LIPZ 201150Z VRB02KT 2500 BR OVC015 09/05 Q1025 NOSIG   
LIPZ 201120Z VRB03KT 2500 BR OVC015 09/05 Q1025 NOSIG   
LIPZ 201050Z VRB02KT 2500 BR BKN020 09/05 Q1025 NOSIG   
LIPZ 201020Z VRB02KT 2500 BR BKN020 09/05 Q1025 NOSIG   
LIPZ 200950Z 03003KT 360V060 2500 BR BKN020 08/05 Q1025 NOSIG   
LIPZ 200920Z 35004KT 2000 BR OVC015 08/05 Q1025 NOSIG   
LIPZ 200850Z 36004KT 2000 BR OVC015 08/05 Q1025 NOSIG   
LIPZ 200820Z 35006KT 1500 BR OVC015 07/05 Q1025 NOSIG   
LIPZ 200750Z 35005KT 1500 BR OVC020 07/05 Q1025 NOSIG   
LIPZ 200720Z 35005KT 1500 BR OVC015 07/05 Q1024 NOSIG   
LIPZ 200650Z 35005KT 1500 BR OVC015 07/05 Q1024 NOSIG   
LIPZ 200620Z 36004KT 1500 BR OVC015 06/05 Q1024 NOSIG   
LIPZ 200550Z 01004KT 1500 BR OVC010 07/05 Q1023 NOSIG   
LIPZ 200520Z 36003KT 320V040 1400 R04R/P1500N BR SCT009 BKN011 07/05 Q1023 NOSIG
LIPZ 200450Z 36004KT 1300 R04R/P1500N BR OVC009 06/05 Q1023 NOSIG   
LIPZ 200420Z 35004KT 1500 BR OVC009 06/05 Q1023 NOSIG   
LIPZ 200350Z 36005KT 1500 BR SCT009 BKN016 06/05 Q1023 NOSIG
LIPZ 200320Z 36004KT 1400 R04R/P1500N BR SCT008 BKN015 06/05 Q1023 NOSIG
LIPZ 200250Z 36004KT 1200 R04R/P1500N BR BKN016 06/05 Q1023 NOSIG   
LIPZ 200220Z 36004KT 1400 R04R/P1500N BR OVC016 06/05 Q1023 NOSIG   
LIPZ 200150Z 36003KT 1400 R04R/P1500N BR OVC016 06/05 Q1023 NOSIG   
LIPZ 200120Z 02004KT 1300 R04R/P1500N BR OVC015 07/05 Q1024 NOSIG   
LIPZ 200050Z 02005KT 1500 BR OVC016 07/05 Q1024 NOSIG   
LIPZ 200020Z 02005KT 1800 BR OVC015 07/05 Q1023 NOSIG   
LIPZ 192350Z 36004KT 1700 BR OVC014 07/05 Q1024 NOSIG   
LIPZ 192320Z 36005KT 1700 BR OVC013 07/05 Q1023 NOSIG   
LIPZ 192250Z 05002KT 1800 BR BKN014 06/05 Q1023 NOSIG   
LIPZ 192220Z 06003KT 1800 BR BKN015 06/05 Q1023 NOSIG   
LIPZ 192150Z 03004KT 360V060 2000 BR BKN015 06/05 Q1023 NOSIG   
LIPZ 192120Z 36005KT 2000 BR BKN015 06/05 Q1023 NOSIG   
LIPZ 192050Z 02005KT 2000 BR SCT010 06/05 Q1023 NOSIG   
LIPZ 192020Z 02006KT 2000 BR SCT010 06/05 Q1023 NOSIG   
LIPZ 191950Z 36006KT 2500 BR SCT015 06/04 Q1023 NOSIG   
LIPZ 191920Z 36007KT 2500 BR SCT015 06/05 Q1023 NOSIG